Etusivu
METAR-TAF:

METAR-TAF

Lentoasemat :

Illinois Valley Regional Airport (Walter A. Duncan Field)

Peru / LaSalle, Illinois, Yhdysvallat

Leveyspiiri: 41-21-07N, Pituuspiiri: 089-09-11W, korkeus merenpinnasta: 199 m

Tämänhetkinen sää

Tämä raportti tehtiin 25 minuuttia sitten, kello 19.55 UTC
Tuuli 16 kn pohjoisen/luoteesta puuskistuen 21 kn:hen
Lämpötila 0°C
Kosteus 69%
Ilmanpaine 1019 hPa
Näkyvyys: 16.1 km
Pilvistä 2500 ft:n korkeudessa

METAR: KVYS 261955Z AUTO 34016G21KT 10SM OVC025 00/M05 A3009 RMK AO2 T00001047

Aika: 14:20 (20:20 UTC)


TAF: puuttuu

Säähavainnot ja -ennusteet yli 4000 lentoasemalta (METAR- ja TAF-raportit).

Käytössä olevat sääasemat on merkitty karttaan keltaisilla ja punaisilla pisteillä.

Aseta hiiri pisteen päälle nähdäksesi sääaseman nimen.

Klikkaa sitten nähdäksesi säähavainnot ja -ennusteet.

Kartan vaihtaminen: klikkaa mustalla rastilla varustettuja vihreitä pisteitä, niin voit zoomata sisään; viivalla varustettua vihreää pistettä, niin voit zoomata ulos tai vihreitä nuolia, niin pääset viereisille kartoille.


METAR-TAF: